Aérodrome :
LOGIN :

S'inscrire | Disclaimer

   EN    FR    IT 

 










Légende :    VFR   VFR Marginal   IFR   IFR Intensif   IFR Très Intensif
Visi : 
Plafond : 
>= 8 km
>= 3000ft
5 à 8 km
1000 à 3000 ft
1500m à 5 km
500 à 1000 ft
800 à 1500m
200 à 500 ft
< 800m
< 200 ft
Symboles :   Orages  Brouillard  Fortes neiges  Fortes précipitations  Vent > 20 kt
SIGMETs :   Divers  Orages  Givrage  Turbulence  Onde Orograph.  Cendres Volcan.






- Altitude de l'aérodrome : 33 ft
- Code IATA : MHZ


EGUN - RAF Mildenhall

DERNIER METAR :
  • 260655Z 18008KT 9000 BR FEW030 OVC055 07/05 A2984 RMK SLPNO WND DATA ESTMD ALTSG ESTMD RVRNO $

METARs EXPIRÉS :
  • 260555Z 20005KT 5000 BR CLR 06/05 A2986 RMK SLPNO WND DATA ESTMD ALTSG ESTMD RVRNO $
  • 260457Z 18005KT 5000 BR CLR 06/05 A2985 RMK SLPNO WND DATA ESTMD ALTSG ESTMD RVRNO .

TAF TAF EGUN
Valide du 26 à 04h jusqu'au 27 à 10h UTC


260400Z 2604/2710 19012KT 5000 BR OVC020 QNH2982INS
BECMG 2608/2609 19012G20KT 9999 NSW SCT020 QNH2966INS
BECMG 2617/2618 20012KT 8000 -SHRA SCT020 QNH2964INS
BECMG 2702/2703 22012G20KT 8000 BR OVC015 QNH2958INS TX10/2614Z TN03/2704Z



MET'MAP, la Météo Aéronautique d'un coup d'oeil ! - Copyright ORBIFLY Décembre 2007 - Disclaimer

ORBIFLY MET'MAP TEAM :

Programmation & Développement : Alexandra Zaïnal
Sur une idée originale de : Baudouin d'Aumeries
Assistance à la programmation : Marc-Olivier Méhu
Soutien technique & logistique : Manuel Goepfert

Contact : metmap@orbifly.com




SOURCES & CREDITS :

   NOAA